Time;durP1;ratioP1;P1;durP2;ratioP2;P2;SDS_P1;SDS_P2;PMS_P1;PMS_P2;Temp;Humidity;BMP_temperature;BMP_pressure;BME280_temperature;BME280_humidity;BME280_pressure;Samples;Min_cycle;Max_cycle;Signal;HPM_P1;HPM_P2
2023/05/30 00:02:11;;;;;;;3.38;2.80;;;;;;;12.53;79.64;94674.44;5053141;28;20486;-69
2023/05/30 00:04:39;;;;;;;7.18;2.88;;;;;;;12.44;80.04;94676.09;5053442;28;20037;-69
2023/05/30 00:07:05;;;;;;;6.75;2.97;;;;;;;12.44;80.47;94681.31;5035802;28;20029;-69
2023/05/30 00:09:31;;;;;;;4.93;2.90;;;;;;;12.34;81.07;94679.69;5052203;28;20025;-69
2023/05/30 00:11:56;;;;;;;3.65;2.75;;;;;;;12.32;81.23;94676.44;5053365;28;20447;-69
2023/05/30 00:14:23;;;;;;;6.03;2.92;;;;;;;12.32;81.12;94674.66;5052348;28;20041;-69
2023/05/30 00:16:48;;;;;;;5.68;2.80;;;;;;;12.43;81.25;94678.88;5035659;28;20029;-69
2023/05/30 00:19:13;;;;;;;5.30;2.90;;;;;;;12.44;81.07;94680.50;5035587;28;20069;-69
2023/05/30 00:21:39;;;;;;;4.43;2.95;;;;;;;12.46;80.74;94678.59;5052054;28;20029;-69
2023/05/30 00:24:05;;;;;;;3.50;2.72;;;;;;;12.39;80.99;94677.50;5053138;28;20522;-69
2023/05/30 00:26:31;;;;;;;5.38;3.20;;;;;;;12.28;81.56;94676.69;5034569;28;20040;-69
2023/05/30 00:28:57;;;;;;;4.53;3.22;;;;;;;12.41;81.22;94676.41;5018281;28;20036;-69
2023/05/30 00:31:23;;;;;;;4.07;2.80;;;;;;;12.19;81.68;94663.69;5051854;28;20076;-69
2023/05/30 00:33:48;;;;;;;9.02;3.50;;;;;;;12.23;81.79;94680.69;5051907;28;20086;-69
2023/05/30 00:36:14;;;;;;;4.53;3.10;;;;;;;12.29;81.55;94672.31;5035187;28;20041;-71
2023/05/30 00:38:40;;;;;;;4.22;2.85;;;;;;;12.29;81.41;94680.13;5034995;28;20040;-69
2023/05/30 00:41:05;;;;;;;4.07;2.65;;;;;;;12.32;81.18;94674.66;5051739;28;20056;-69
2023/05/30 00:43:31;;;;;;;4.05;2.38;;;;;;;12.42;80.76;94685.03;5051576;28;20037;-69
2023/05/30 00:45:56;;;;;;;6.70;3.17;;;;;;;12.24;81.14;94679.75;5051547;28;20017;-69
2023/05/30 00:48:22;;;;;;;4.10;2.60;;;;;;;12.34;80.67;94688.34;5018421;28;20068;-69
2023/05/30 00:50:48;;;;;;;4.95;3.13;;;;;;;12.25;80.66;94681.38;5051601;28;20430;-70
2023/05/30 00:53:13;;;;;;;4.35;2.63;;;;;;;12.15;80.82;94673.59;5034974;28;20025;-69
2023/05/30 00:55:38;;;;;;;5.95;2.70;;;;;;;12.30;80.36;94684.38;5018371;28;20415;-69
2023/05/30 00:58:04;;;;;;;4.68;2.60;;;;;;;12.38;80.41;94681.06;5051243;28;20410;-69
2023/05/30 01:00:30;;;;;;;6.22;2.80;;;;;;;12.39;80.21;94685.31;5034775;28;20025;-70
2023/05/30 01:03:00;;;;;;;4.03;2.63;;;;;;;12.36;80.39;94694.22;5034594;28;20483;-69
2023/05/30 01:05:29;;;;;;;6.25;2.85;;;;;;;12.34;80.64;94685.75;5051311;28;20025;-69
2023/05/30 01:07:54;;;;;;;3.90;2.60;;;;;;;12.30;80.95;94684.38;5052548;28;20091;-69
2023/05/30 01:10:20;;;;;;;4.85;2.60;;;;;;;12.25;80.97;94687.38;5051093;28;20469;-69
2023/05/30 01:13:03;;;;;;;5.00;2.80;;;;;;;12.38;80.37;94681.06;5051116;28;20025;-69
2023/05/30 01:15:33;;;;;;;4.00;2.72;;;;;;;12.30;80.36;94679.97;5052299;28;20039;-69
2023/05/30 01:18:01;;;;;;;5.40;3.25;;;;;;;12.30;80.52;94677.38;5034268;28;20025;-70
2023/05/30 01:20:27;;;;;;;4.28;2.80;;;;;;;12.24;80.57;94656.28;5050861;28;20055;-69
2023/05/30 01:23:16;;;;;;;3.85;2.47;;;;;;;12.22;80.62;94650.41;5050847;28;20025;-69
2023/05/30 01:25:48;;;;;;;7.68;3.47;;;;;;;12.28;80.62;94660.25;5036221;28;20048;-69
2023/05/30 01:28:15;;;;;;;5.63;2.88;;;;;;;12.30;80.36;94666.97;5051871;28;20029;-69
2023/05/30 01:30:43;;;;;;;3.65;2.67;;;;;;;12.25;80.87;94663.13;5050787;28;20021;-69
2023/05/30 01:33:09;;;;;;;3.58;2.78;;;;;;;12.20;80.98;94655.75;5034051;28;20017;-69
2023/05/30 01:35:35;;;;;;;6.15;2.65;;;;;;;12.18;81.19;94656.88;5050732;28;20033;-69
2023/05/30 01:38:00;;;;;;;4.65;2.75;;;;;;;12.23;81.11;94665.06;5033443;28;20040;-69
2023/05/30 01:40:26;;;;;;;3.30;2.42;;;;;;;12.20;80.94;94667.94;5049796;28;20036;-69
2023/05/30 01:43:01;;;;;;;4.60;2.85;;;;;;;12.20;80.91;94673.16;5049136;28;20048;-69
2023/05/30 01:45:35;;;;;;;3.83;2.58;;;;;;;12.14;80.86;94652.88;5017930;28;20029;-69
2023/05/30 01:48:07;;;;;;;4.88;2.70;;;;;;;12.18;80.50;94659.47;5034288;28;20032;-69
2023/05/30 01:50:39;;;;;;;4.05;2.67;;;;;;;12.18;80.79;94664.69;5033531;28;20028;-69
2023/05/30 01:53:06;;;;;;;5.65;2.60;;;;;;;12.25;80.61;94668.34;5033799;28;20498;-69
2023/05/30 01:55:31;;;;;;;5.90;2.90;;;;;;;12.03;80.89;94662.47;5051292;28;20491;-69
2023/05/30 01:57:57;;;;;;;5.22;2.60;;;;;;;11.93;81.17;94663.47;5016928;28;20032;-69
2023/05/30 02:00:22;;;;;;;3.35;2.65;;;;;;;11.95;81.22;94666.75;5050245;28;20099;-69
2023/05/30 02:02:48;;;;;;;4.68;2.70;;;;;;;11.97;81.06;94668.25;5033505;28;20036;-69
2023/05/30 02:05:13;;;;;;;4.88;2.38;;;;;;;11.93;80.57;94679.91;5050300;28;20131;-69
2023/05/30 02:07:39;;;;;;;4.03;2.80;;;;;;;11.99;79.43;94686.34;5049990;28;20036;-69
2023/05/30 02:10:05;;;;;;;4.35;2.65;;;;;;;11.96;79.42;94686.63;5050007;28;20060;-69
2023/05/30 02:12:31;;;;;;;4.22;2.55;;;;;;;11.68;80.61;94689.06;5050025;28;20025;-69
2023/05/30 02:14:57;;;;;;;5.47;2.90;;;;;;;11.60;81.31;94689.75;5050154;28;20033;-69
2023/05/30 02:17:23;;;;;;;5.15;2.92;;;;;;;11.56;81.26;94685.78;5049827;28;20098;-69
2023/05/30 02:19:48;;;;;;;3.85;3.03;;;;;;;11.51;81.68;94690.56;5050111;28;20388;-68
2023/05/30 02:22:14;;;;;;;5.32;2.53;;;;;;;11.43;81.70;94666.19;5049814;28;20068;-69
2023/05/30 02:24:40;;;;;;;5.72;2.63;;;;;;;11.73;80.95;94692.09;5033447;28;20473;-69
2023/05/30 02:27:06;;;;;;;3.65;2.65;;;;;;;11.69;80.44;94695.91;5050792;28;20151;-69
2023/05/30 02:29:32;;;;;;;5.43;2.47;;;;;;;11.57;80.53;94679.63;5051330;28;20117;-69
2023/05/30 02:31:57;;;;;;;3.72;2.50;;;;;;;11.54;81.08;94687.69;5033124;28;20033;-69
2023/05/30 02:34:23;;;;;;;5.10;2.65;;;;;;;11.60;81.23;94692.34;5049811;28;20098;-69
2023/05/30 02:36:48;;;;;;;5.28;2.70;;;;;;;11.70;81.47;94692.38;5050817;28;20069;-68
2023/05/30 02:39:14;;;;;;;5.93;2.85;;;;;;;11.65;81.64;94696.34;5051105;28;20033;-69
2023/05/30 02:41:39;;;;;;;3.42;2.40;;;;;;;11.61;81.61;94698.38;5049624;28;20486;-69
2023/05/30 02:44:06;;;;;;;3.20;2.33;;;;;;;11.60;81.68;94694.13;5033010;28;20025;-69
2023/05/30 02:46:33;;;;;;;5.03;2.63;;;;;;;11.54;81.72;94699.88;5049411;28;20087;-69
2023/05/30 02:48:59;;;;;;;5.22;2.70;;;;;;;11.59;81.58;94687.28;5050826;28;20025;-69
2023/05/30 02:51:25;;;;;;;4.50;2.58;;;;;;;11.65;81.15;94697.16;5032160;28;20029;-68
2023/05/30 02:53:50;;;;;;;3.22;2.53;;;;;;;11.68;81.13;94694.28;5050830;28;20052;-69
2023/05/30 02:56:16;;;;;;;6.47;2.53;;;;;;;11.61;81.10;94690.56;5049492;28;20056;-69
2023/05/30 02:58:41;;;;;;;3.92;2.50;;;;;;;11.66;81.23;94682.34;5032683;28;20078;-68
2023/05/30 03:01:07;;;;;;;4.13;2.75;;;;;;;11.63;81.34;94681.66;5049398;28;20483;-69
2023/05/30 03:03:34;;;;;;;7.10;2.92;;;;;;;11.41;81.99;94664.53;5032853;28;20044;-69
2023/05/30 03:06:01;;;;;;;3.15;2.50;;;;;;;11.60;81.95;94684.53;5032973;28;20033;-69
2023/05/30 03:08:28;;;;;;;4.88;2.92;;;;;;;11.63;81.75;94676.47;5049253;28;20487;-69
2023/05/30 03:10:54;;;;;;;3.85;2.83;;;;;;;11.67;81.53;94678.78;5032937;28;20084;-69
2023/05/30 03:13:20;;;;;;;4.25;3.20;;;;;;;11.67;81.80;94676.19;5032812;28;20029;-69
2023/05/30 03:15:45;;;;;;;4.93;2.60;;;;;;;11.66;81.96;94677.16;5049174;28;20048;-70
2023/05/30 03:18:11;;;;;;;3.92;2.83;;;;;;;11.62;82.38;94684.41;5032858;28;20029;-69
2023/05/30 03:20:36;;;;;;;5.65;3.03;;;;;;;11.66;82.28;94682.34;5050442;28;20102;-69
2023/05/30 03:23:02;;;;;;;4.50;2.90;;;;;;;11.75;82.15;94679.75;5032452;28;20025;-69
2023/05/30 03:25:28;;;;;;;6.15;2.90;;;;;;;11.80;81.53;94676.75;5049202;28;20025;-69
2023/05/30 03:27:53;;;;;;;3.67;2.70;;;;;;;11.88;81.40;94692.53;5032422;28;20029;-69
2023/05/30 03:30:22;;;;;;;4.40;2.95;;;;;;;11.94;80.87;94689.34;5050841;28;20039;-69
2023/05/30 03:32:48;;;;;;;4.95;2.70;;;;;;;11.95;81.02;94696.22;5032850;28;20031;-69
2023/05/30 03:35:14;;;;;;;4.03;2.58;;;;;;;11.99;80.68;94689.78;5049268;28;20422;-69
2023/05/30 03:37:40;;;;;;;3.45;2.42;;;;;;;11.93;80.88;94682.53;5048989;28;20032;-69
2023/05/30 03:40:08;;;;;;;5.50;2.95;;;;;;;12.04;81.14;94695.38;5032621;28;20405;-69
2023/05/30 03:42:34;;;;;;;3.58;2.58;;;;;;;12.02;81.15;94697.31;5050241;28;20022;-69
2023/05/30 03:45:00;;;;;;;4.47;2.47;;;;;;;11.96;80.70;94700.47;5050577;28;20116;-69
2023/05/30 03:47:25;;;;;;;4.90;2.80;;;;;;;11.88;80.73;94705.53;5048885;28;20116;-69
2023/05/30 03:49:51;;;;;;;3.83;2.83;;;;;;;11.77;80.45;94692.63;5050070;28;20044;-69
2023/05/30 03:52:17;;;;;;;4.05;2.60;;;;;;;11.96;80.00;94697.84;5048841;28;20021;-69
2023/05/30 03:54:43;;;;;;;3.80;2.70;;;;;;;11.93;79.79;94698.13;5050479;28;20044;-69
2023/05/30 03:57:08;;;;;;;4.07;2.55;;;;;;;12.00;79.33;94694.00;5049958;28;20028;-69
2023/05/30 03:59:33;;;;;;;7.38;2.90;;;;;;;12.07;79.22;94715.13;5049992;28;20033;-69
2023/05/30 04:01:59;;;;;;;3.45;2.45;;;;;;;12.24;77.95;94697.97;5017198;28;20090;-69
2023/05/30 04:04:25;;;;;;;3.65;2.40;;;;;;;12.27;78.30;94706.31;5019393;28;20047;-69
2023/05/30 04:06:50;;;;;;;4.45;2.65;;;;;;;12.39;77.81;94709.56;5052573;28;20025;-69
2023/05/30 04:09:15;;;;;;;3.47;2.58;;;;;;;12.48;77.86;94720.94;5052315;28;20036;-69
2023/05/30 04:11:41;;;;;;;5.75;2.65;;;;;;;12.55;78.11;94721.22;5052351;28;20064;-69
2023/05/30 04:14:06;;;;;;;7.20;4.15;;;;;;;12.58;78.48;94713.91;5052293;28;20055;-69
2023/05/30 04:16:32;;;;;;;7.25;3.63;;;;;;;12.62;78.11;94709.25;5053391;28;20454;-69
2023/05/30 04:18:57;;;;;;;6.70;3.72;;;;;;;12.84;78.18;94721.09;5052217;28;20407;-69
2023/05/30 04:21:23;;;;;;;7.63;3.85;;;;;;;13.07;78.29;94716.38;5052002;28;20029;-69
2023/05/30 04:23:48;;;;;;;5.70;3.85;;;;;;;13.21;77.73;94725.50;5053409;28;20033;-70
2023/05/30 04:26:14;;;;;;;4.32;3.30;;;;;;;13.47;77.20;94726.47;5052071;28;20418;-69
2023/05/30 04:28:41;;;;;;;4.97;3.00;;;;;;;13.64;76.61;94724.84;5009178;28;20413;-69
2023/05/30 04:31:07;;;;;;;6.55;2.85;;;;;;;13.55;76.20;94723.94;5030071;28;20157;-69
2023/05/30 04:33:36;;;;;;;3.10;2.60;;;;;;;13.69;75.27;94725.22;5044923;28;20565;-69
2023/05/30 04:36:05;;;;;;;4.13;2.90;;;;;;;13.79;74.89;94707.72;5032068;28;20463;-69
2023/05/30 04:38:39;;;;;;;3.85;3.00;;;;;;;13.67;75.24;94688.00;5030803;28;20485;-69
2023/05/30 04:41:05;;;;;;;5.82;3.20;;;;;;;13.93;74.53;94705.53;5041586;28;20040;-69
2023/05/30 04:43:31;;;;;;;5.10;3.33;;;;;;;14.13;75.75;94738.34;5028148;28;20491;-69
2023/05/30 04:46:00;;;;;;;5.97;3.60;;;;;;;14.21;74.52;94738.44;5029972;28;20384;-69
2023/05/30 04:48:28;;;;;;;5.80;3.28;;;;;;;14.06;74.47;94722.44;5045113;28;20044;-69
2023/05/30 04:50:54;;;;;;;5.20;3.38;;;;;;;13.88;73.67;94686.91;5047093;28;20032;-69
2023/05/30 04:53:20;;;;;;;4.72;2.60;;;;;;;14.10;74.25;94741.28;5029821;28;20059;-69
2023/05/30 04:55:46;;;;;;;7.15;3.05;;;;;;;14.24;75.18;94753.81;5047869;28;20028;-69
2023/05/30 04:58:12;;;;;;;4.68;3.40;;;;;;;14.22;75.13;94760.97;5031114;28;20029;-69
2023/05/30 05:00:38;;;;;;;6.63;3.15;;;;;;;13.96;74.90;94747.84;5048768;28;20055;-69
2023/05/30 05:03:04;;;;;;;7.03;2.83;;;;;;;14.07;74.96;94765.09;5047202;28;20028;-69
2023/05/30 05:05:30;;;;;;;4.53;3.10;;;;;;;14.23;74.30;94767.81;5032201;28;20600;-69
2023/05/30 05:07:55;;;;;;;8.40;3.13;;;;;;;13.90;75.51;94690.16;5046569;28;20031;-69
2023/05/30 05:10:21;;;;;;;4.30;2.85;;;;;;;14.11;75.13;94757.75;5030757;28;20056;-69
2023/05/30 05:12:46;;;;;;;4.25;2.80;;;;;;;14.38;75.21;94762.09;5045666;28;20471;-69
2023/05/30 05:15:12;;;;;;;3.58;2.70;;;;;;;14.37;73.49;94765.66;5047273;28;20033;-69
2023/05/30 05:17:38;;;;;;;3.95;2.63;;;;;;;14.20;72.32;94734.16;5030424;28;20375;-69
2023/05/30 05:20:05;;;;;;;4.32;2.22;;;;;;;14.44;73.08;94774.53;5048132;28;20495;-69
2023/05/30 05:22:32;;;;;;;3.20;2.90;;;;;;;14.50;73.49;94759.06;5046218;28;20029;-70
2023/05/30 05:24:57;;;;;;;4.30;3.20;;;;;;;14.61;73.44;94763.25;5031406;28;20094;-70
2023/05/30 05:27:25;;;;;;;5.57;2.95;;;;;;;14.61;73.41;94778.94;5029846;28;20029;-68
2023/05/30 05:29:50;;;;;;;5.60;3.03;;;;;;;14.56;74.15;94780.38;5047287;28;20029;-70
2023/05/30 05:32:16;;;;;;;6.18;3.00;;;;;;;14.48;74.28;94776.66;5045331;28;20032;-69
2023/05/30 05:34:41;;;;;;;4.53;2.88;;;;;;;14.58;74.22;94792.31;5048376;28;20041;-69
2023/05/30 05:37:07;;;;;;;5.78;3.55;;;;;;;14.51;74.20;94783.41;5046299;28;20259;-69
2023/05/30 05:39:32;;;;;;;5.10;2.92;;;;;;;14.66;74.90;94786.34;5047387;28;20029;-69
2023/05/30 05:41:57;;;;;;;5.15;2.55;;;;;;;14.65;74.54;94789.91;5044819;28;20467;-69
2023/05/30 05:44:23;;;;;;;4.90;2.80;;;;;;;14.68;73.04;94782.59;5048009;28;20043;-69
2023/05/30 05:46:49;;;;;;;3.33;2.47;;;;;;;14.51;72.57;94750.25;5032396;28;20028;-69
2023/05/30 05:49:14;;;;;;;3.42;2.53;;;;;;;14.53;72.61;94760.56;5051851;28;20037;-69
2023/05/30 05:51:39;;;;;;;4.63;2.38;;;;;;;14.83;72.09;94790.69;5050326;28;20025;-70
2023/05/30 05:54:05;;;;;;;2.92;2.10;;;;;;;14.80;71.47;94790.19;5050413;28;20041;-70
2023/05/30 05:56:31;;;;;;;3.50;2.53;;;;;;;14.73;71.84;94788.16;5049474;28;20036;-69
2023/05/30 05:58:56;;;;;;;6.70;2.30;;;;;;;14.67;71.69;94794.00;5033400;28;20044;-69
2023/05/30 06:01:22;;;;;;;5.40;2.38;;;;;;;14.73;71.71;94793.38;5051474;28;20466;-69
2023/05/30 06:03:47;;;;;;;3.58;2.40;;;;;;;14.68;71.86;94794.81;5051726;28;20035;-69
2023/05/30 06:06:13;;;;;;;3.67;2.33;;;;;;;14.58;72.10;94787.09;5050042;28;20025;-69
2023/05/30 06:08:38;;;;;;;3.55;2.67;;;;;;;14.74;71.83;94787.22;5050061;28;20048;-70
2023/05/30 06:11:04;;;;;;;4.65;2.38;;;;;;;14.77;71.68;94783.47;5051311;28;20052;-70
2023/05/30 06:13:30;;;;;;;3.40;2.70;;;;;;;14.74;72.18;94784.59;5050423;28;20636;-69
2023/05/30 06:15:55;;;;;;;3.13;2.50;;;;;;;14.88;72.19;94790.25;5049360;28;20430;-70
2023/05/30 06:18:21;;;;;;;3.17;2.40;;;;;;;15.01;71.57;94798.47;5049340;28;20494;-69
2023/05/30 06:20:46;;;;;;;2.83;2.20;;;;;;;15.13;71.57;94784.19;5033394;28;20021;-69
2023/05/30 06:23:11;;;;;;;4.18;2.10;;;;;;;15.34;72.05;94798.66;5033108;28;20027;-69
2023/05/30 06:25:37;;;;;;;3.10;2.30;;;;;;;15.40;73.01;94796.22;5033132;28;20033;-69
2023/05/30 06:28:02;;;;;;;2.97;2.20;;;;;;;15.56;72.07;94800.72;5050785;28;20037;-69
2023/05/30 06:30:28;;;;;;;3.85;2.35;;;;;;;15.48;72.88;94774.50;5049725;28;20036;-69
2023/05/30 06:32:53;;;;;;;3.78;2.47;;;;;;;15.70;71.85;94803.75;5049685;28;20021;-70
2023/05/30 06:35:19;;;;;;;3.25;2.40;;;;;;;15.86;68.71;94798.56;5033264;28;20418;-69
2023/05/30 06:37:45;;;;;;;3.63;2.50;;;;;;;15.84;69.63;94805.75;5050845;28;20388;-70
2023/05/30 06:40:11;;;;;;;3.70;2.65;;;;;;;16.00;69.94;94807.59;5042981;28;20615;-69
2023/05/30 06:42:36;;;;;;;6.57;2.70;;;;;;;16.09;69.69;94809.25;5048322;28;20025;-69
2023/05/30 06:45:02;;;;;;;3.75;2.60;;;;;;;16.14;69.81;94814.03;5047654;28;20454;-70
2023/05/30 06:47:28;;;;;;;3.28;2.45;;;;;;;15.97;70.11;94806.13;5047324;28;20383;-69
2023/05/30 06:49:53;;;;;;;3.72;2.50;;;;;;;16.27;69.23;94803.91;5047709;28;20045;-69
2023/05/30 06:52:18;;;;;;;4.20;2.60;;;;;;;16.12;69.18;94810.72;5047408;28;20039;-69
2023/05/30 06:54:45;;;;;;;5.53;2.70;;;;;;;16.28;66.51;94803.72;5047630;28;20091;-69
2023/05/30 06:57:10;;;;;;;7.70;3.05;;;;;;;16.15;68.13;94807.78;5031368;28;20041;-69
2023/05/30 06:59:36;;;;;;;3.58;2.83;;;;;;;16.45;66.70;94809.78;5049570;28;20040;-70
2023/05/30 07:02:02;;;;;;;4.05;2.63;;;;;;;16.37;67.42;94815.03;5050517;28;20029;-69
2023/05/30 07:04:27;;;;;;;4.25;3.00;;;;;;;16.43;67.13;94811.75;5033004;28;20033;-69
2023/05/30 07:06:53;;;;;;;4.60;2.58;;;;;;;16.36;67.56;94804.72;5049219;28;20037;-69
2023/05/30 07:09:18;;;;;;;3.30;2.67;;;;;;;16.42;68.00;94820.59;5032869;28;20041;-70
2023/05/30 07:11:44;;;;;;;5.40;3.22;;;;;;;16.51;67.74;94817.00;5050367;28;20045;-70
2023/05/30 07:14:11;;;;;;;8.40;3.30;;;;;;;16.57;67.07;94820.78;5049307;28;20056;-70
2023/05/30 07:16:37;;;;;;;4.57;3.00;;;;;;;16.48;67.49;94817.31;5050451;28;20017;-70
2023/05/30 07:19:02;;;;;;;7.35;4.25;;;;;;;16.47;67.44;94810.47;5032669;28;20037;-69
2023/05/30 07:21:29;;;;;;;6.00;3.75;;;;;;;16.54;67.34;94806.19;5050416;28;20509;-70
2023/05/30 07:23:57;;;;;;;6.22;3.70;;;;;;;16.78;67.65;94814.25;5032814;28;20032;-69
2023/05/30 07:26:22;;;;;;;7.25;3.65;;;;;;;16.94;67.42;94822.94;5049055;28;20041;-70
2023/05/30 07:28:48;;;;;;;5.15;3.90;;;;;;;16.99;67.25;94819.78;5049209;28;20407;-69
2023/05/30 07:31:13;;;;;;;7.70;4.70;;;;;;;16.97;67.56;94827.84;5032473;28;20483;-69
2023/05/30 07:33:39;;;;;;;6.07;4.43;;;;;;;16.85;67.59;94829.16;5048967;28;20051;-69
2023/05/30 07:36:04;;;;;;;7.35;4.78;;;;;;;16.75;68.25;94837.19;5050514;28;20029;-69
2023/05/30 07:38:30;;;;;;;7.60;4.80;;;;;;;16.75;68.02;94829.31;5052868;28;20033;-69
2023/05/30 07:40:55;;;;;;;8.77;5.35;;;;;;;17.00;67.30;94831.94;5054086;28;20036;-69
2023/05/30 07:43:21;;;;;;;6.03;4.80;;;;;;;16.68;67.49;94806.50;5036221;28;20106;-70
2023/05/30 07:45:46;;;;;;;12.05;5.10;;;;;;;16.80;67.59;94823.59;5052857;28;20040;-71
2023/05/30 07:48:12;;;;;;;15.98;5.00;;;;;;;17.03;66.99;94812.44;5035903;28;20435;-69
2023/05/30 07:50:37;;;;;;;9.35;5.00;;;;;;;16.95;67.51;94823.75;5052759;28;20084;-70
2023/05/30 07:53:03;;;;;;;9.00;5.18;;;;;;;17.15;66.87;94829.47;5053714;28;20029;-69
2023/05/30 07:55:28;;;;;;;9.27;4.97;;;;;;;16.96;67.02;94825.38;5054071;28;20033;-71
2023/05/30 07:57:53;;;;;;;8.02;4.93;;;;;;;16.83;66.83;94815.41;5052861;28;20471;-70
2023/05/30 08:00:19;;;;;;;8.75;4.97;;;;;;;16.98;66.75;94829.47;5036127;28;20487;-70
2023/05/30 08:02:44;;;;;;;7.15;5.47;;;;;;;17.38;64.82;94825.16;5052446;28;20411;-69
2023/05/30 08:05:10;;;;;;;8.02;5.22;;;;;;;17.44;65.71;94826.28;5054096;28;20399;-70
2023/05/30 08:07:35;;;;;;;8.75;5.90;;;;;;;17.34;66.37;94829.09;5035614;28;20033;-69
2023/05/30 08:10:01;;;;;;;6.68;4.60;;;;;;;17.59;64.68;94821.94;5052227;28;20061;-70
2023/05/30 08:12:29;;;;;;;8.30;4.70;;;;;;;17.67;64.94;94818.47;5035652;28;20036;-70
2023/05/30 08:14:55;;;;;;;12.68;9.77;;;;;;;17.75;65.47;94825.53;5052354;28;20068;-70
2023/05/30 08:17:23;;;;;;;12.07;9.38;;;;;;;17.69;65.88;94832.28;5035684;28;20029;-69
2023/05/30 08:19:50;;;;;;;16.75;8.35;;;;;;;17.60;65.87;94826.22;5035943;28;20041;-70
2023/05/30 08:22:15;;;;;;;12.93;7.53;;;;;;;17.89;63.89;94824.81;5052015;28;20025;-69
2023/05/30 08:24:41;;;;;;;10.90;7.85;;;;;;;17.91;64.08;94829.91;5035747;28;20555;-70
2023/05/30 08:27:08;;;;;;;11.00;6.30;;;;;;;17.79;64.42;94830.28;5053084;28;20040;-69
2023/05/30 08:29:33;;;;;;;7.35;4.53;;;;;;;17.88;64.02;94832.88;5035751;28;20479;-70
2023/05/30 08:31:59;;;;;;;6.63;4.82;;;;;;;17.83;63.99;94828.16;5053077;28;20024;-70
2023/05/30 08:34:24;;;;;;;7.82;4.50;;;;;;;17.91;63.91;94827.25;5035351;28;20051;-69
2023/05/30 08:36:55;;;;;;;8.30;4.15;;;;;;;17.96;61.84;94833.66;5051773;28;20036;-69
2023/05/30 08:39:20;;;;;;;5.00;3.63;;;;;;;17.93;61.82;94827.91;5035872;28;20041;-70
2023/05/30 08:41:46;;;;;;;4.07;3.25;;;;;;;17.82;61.04;94822.03;5052929;28;20384;-69
2023/05/30 08:44:11;;;;;;;4.53;3.20;;;;;;;17.86;61.23;94820.72;5051651;28;20037;-69
2023/05/30 08:46:43;;;;;;;6.43;3.70;;;;;;;18.00;62.38;94821.00;5051617;28;20083;-70
2023/05/30 08:49:11;;;;;;;3.97;3.20;;;;;;;17.97;60.78;94816.06;5050519;28;20037;-70
2023/05/30 08:51:37;;;;;;;3.70;2.97;;;;;;;18.18;59.50;94821.53;5035137;28;20032;-69
2023/05/30 08:54:02;;;;;;;3.50;2.67;;;;;;;18.46;59.72;94835.00;5034995;28;20041;-70
2023/05/30 08:56:37;;;;;;;5.88;3.10;;;;;;;18.31;59.30;94832.31;5034909;28;20075;-69
2023/05/30 08:59:03;;;;;;;4.18;2.90;;;;;;;18.42;58.09;94838.16;5051494;28;20515;-69
2023/05/30 09:01:29;;;;;;;4.60;3.20;;;;;;;18.31;59.24;94837.56;5051372;28;20079;-69
2023/05/30 09:03:54;;;;;;;4.78;3.35;;;;;;;18.13;59.10;94831.75;5051425;28;20035;-70
2023/05/30 09:06:20;;;;;;;4.72;3.47;;;;;;;18.19;59.92;94838.13;5034813;28;20029;-70
2023/05/30 09:08:45;;;;;;;8.85;3.58;;;;;;;18.31;59.50;94829.69;5051180;28;20403;-69
2023/05/30 09:11:11;;;;;;;5.28;3.35;;;;;;;18.37;59.56;94835.25;5034564;28;20053;-70
2023/05/30 09:13:37;;;;;;;7.30;4.00;;;;;;;18.47;59.46;94830.53;5051012;28;20035;-69
2023/05/30 09:16:02;;;;;;;5.53;3.33;;;;;;;18.52;58.25;94833.47;5051205;28;20491;-70
2023/05/30 09:18:32;;;;;;;4.78;3.20;;;;;;;18.46;59.52;94834.19;5052283;28;20041;-70
2023/05/30 09:20:57;;;;;;;3.92;2.67;;;;;;;18.33;59.48;94818.16;5052251;28;20021;-70
2023/05/30 09:23:23;;;;;;;4.57;2.95;;;;;;;18.34;59.35;94833.78;5052149;28;20129;-70
2023/05/30 09:25:49;;;;;;;3.25;2.80;;;;;;;18.43;61.02;94824.84;5050971;28;20025;-71
2023/05/30 09:28:15;;;;;;;3.83;3.10;;;;;;;18.54;60.13;94836.75;5034181;28;20048;-69
2023/05/30 09:30:58;;;;;;;3.92;2.83;;;;;;;18.69;59.92;94834.19;5017589;28;20025;-70
2023/05/30 09:33:23;;;;;;;5.75;2.83;;;;;;;18.62;59.42;94834.06;5050737;28;20107;-70
2023/05/30 09:35:52;;;;;;;3.20;2.67;;;;;;;18.96;59.14;94830.22;5017676;28;20128;-70
2023/05/30 09:38:22;;;;;;;4.05;2.42;;;;;;;18.70;58.09;94828.75;5051753;28;20020;-70
2023/05/30 09:41:01;;;;;;;4.55;2.35;;;;;;;18.68;58.33;94817.56;5033201;28;20288;-70
2023/05/30 09:43:34;;;;;;;4.57;2.30;;;;;;;18.73;58.15;94809.97;5050021;28;20411;-70
2023/05/30 09:46:01;;;;;;;3.88;2.70;;;;;;;19.16;56.90;94807.63;5034402;28;20116;-70
2023/05/30 09:48:26;;;;;;;3.67;2.53;;;;;;;19.22;57.04;94807.91;5033614;28;20073;-70
2023/05/30 09:50:52;;;;;;;3.53;2.58;;;;;;;19.24;57.68;94816.47;5050425;28;20541;-69
2023/05/30 09:53:17;;;;;;;3.83;2.70;;;;;;;19.35;57.92;94819.47;5050226;28;20021;-70
2023/05/30 09:55:43;;;;;;;3.63;2.60;;;;;;;19.40;56.98;94824.19;5050406;28;20033;-70
2023/05/30 09:58:12;;;;;;;4.13;2.30;;;;;;;19.48;57.44;94816.22;5050166;28;20033;-70
2023/05/30 10:00:37;;;;;;;3.13;2.40;;;;;;;19.83;56.74;94809.38;5033743;28;20420;-70
2023/05/30 10:03:03;;;;;;;3.17;2.63;;;;;;;20.00;55.90;94802.09;5051253;28;20021;-70
2023/05/30 10:05:28;;;;;;;3.28;2.22;;;;;;;20.00;55.22;94796.00;5033580;28;20017;-70
2023/05/30 10:07:55;;;;;;;3.45;2.00;;;;;;;20.01;54.66;94806.38;5050066;28;20044;-70
2023/05/30 10:10:20;;;;;;;3.00;2.10;;;;;;;20.00;54.00;94807.38;5050063;28;20511;-70
2023/05/30 10:12:51;;;;;;;3.60;2.10;;;;;;;20.24;54.01;94808.84;5049973;28;20036;-70
2023/05/30 10:15:18;;;;;;;2.70;2.30;;;;;;;19.90;54.27;94803.41;5050229;28;20037;-70
2023/05/30 10:18:06;;;;;;;3.85;2.28;;;;;;;20.29;52.73;94808.28;5049948;28;20025;-70
2023/05/30 10:20:33;;;;;;;3.80;2.05;;;;;;;20.39;52.87;94805.34;5051298;28;20037;-69
2023/05/30 10:22:59;;;;;;;2.88;1.98;;;;;;;19.38;56.43;94799.84;5033284;28;20394;-69
2023/05/30 10:25:26;;;;;;;3.20;2.28;;;;;;;19.39;55.52;94809.41;5049865;28;20025;-69
2023/05/30 10:27:52;;;;;;;3.30;2.25;;;;;;;19.34;55.52;94794.13;5050110;28;20106;-69
2023/05/30 10:30:21;;;;;;;3.22;2.25;;;;;;;19.02;56.21;94807.63;5051466;28;20482;-69
2023/05/30 10:32:50;;;;;;;4.95;2.42;;;;;;;19.24;57.08;94800.66;5033280;28;20483;-69
2023/05/30 10:35:15;;;;;;;3.83;2.30;;;;;;;19.39;55.79;94790.97;5033584;28;20102;-70
2023/05/30 10:37:41;;;;;;;4.05;2.45;;;;;;;19.51;55.73;94796.59;5033078;28;20519;-70
2023/05/30 10:40:25;;;;;;;2.95;1.80;;;;;;;19.43;55.45;94795.66;5049554;28;20498;-69
2023/05/30 10:43:10;;;;;;;3.40;1.90;;;;;;;19.75;55.05;94790.22;5050854;28;20064;-70
2023/05/30 10:45:54;;;;;;;2.47;1.98;;;;;;;19.31;55.48;94791.06;5050608;28;20111;-70
2023/05/30 10:48:27;;;;;;;3.08;2.03;;;;;;;19.49;55.47;94788.03;5050685;28;20045;-70
2023/05/30 10:50:57;;;;;;;3.20;1.75;;;;;;;19.63;54.85;94785.38;5050791;28;20025;-69
2023/05/30 10:53:22;;;;;;;3.60;2.00;;;;;;;19.09;55.48;94777.78;5049424;28;20052;-70
2023/05/30 10:55:48;;;;;;;5.72;2.40;;;;;;;19.26;56.22;94773.16;5049540;28;20025;-69
2023/05/30 10:58:42;;;;;;;3.17;2.08;;;;;;;18.98;57.03;94771.13;5049429;28;20036;-69
2023/05/30 11:01:30;;;;;;;3.55;2.13;;;;;;;19.10;55.64;94770.69;5050620;28;20064;-69
2023/05/30 11:04:03;;;;;;;2.67;1.75;;;;;;;19.02;55.76;94765.50;5032733;28;20068;-69
2023/05/30 11:06:33;;;;;;;2.97;1.95;;;;;;;18.91;57.29;94766.75;5033264;28;20029;-69
2023/05/30 11:09:12;;;;;;;3.80;2.22;;;;;;;19.04;56.96;94759.06;5049490;28;20477;-69
2023/05/30 11:11:53;;;;;;;4.20;1.83;;;;;;;19.19;55.55;94754.63;5034047;28;20045;-70
2023/05/30 11:14:32;;;;;;;2.53;1.60;;;;;;;19.03;55.25;94730.28;5053346;28;20037;-70
2023/05/30 11:17:03;;;;;;;3.45;1.80;;;;;;;19.27;56.45;94748.44;5053319;28;20083;-69
2023/05/30 11:19:45;;;;;;;3.05;1.80;;;;;;;19.01;57.16;94735.75;5053450;28;20044;-70
2023/05/30 11:22:22;;;;;;;2.85;2.00;;;;;;;19.20;56.04;94732.56;5053338;28;20036;-70
2023/05/30 11:25:08;;;;;;;3.33;1.85;;;;;;;19.28;55.88;94729.03;5036907;28;20124;-69
2023/05/30 11:27:34;;;;;;;2.45;1.83;;;;;;;19.34;55.89;94723.03;5054137;28;20483;-70
2023/05/30 11:29:59;;;;;;;3.60;1.67;;;;;;;19.65;55.50;94727.25;5053280;28;20052;-71
2023/05/30 11:32:28;;;;;;;2.22;1.60;;;;;;;19.30;55.83;94713.84;5054251;28;20025;-70
2023/05/30 11:34:58;;;;;;;3.45;2.20;;;;;;;19.11;57.86;94717.88;5021123;28;20029;-69